createdAt,value
2018-03-06T00:01:21.366Z,13.97
2018-03-06T00:03:37.916Z,16.97
2018-03-06T00:05:38.936Z,17.63
2018-03-06T00:07:39.927Z,16.50
2018-03-06T00:09:40.926Z,17.80
2018-03-06T00:11:42.828Z,18.47
2018-03-06T00:13:51.677Z,17.77
2018-03-06T00:15:52.837Z,18.30
2018-03-06T00:17:53.883Z,17.00
2018-03-06T00:19:54.862Z,17.90
2018-03-06T00:21:56.684Z,17.80
2018-03-06T00:23:57.866Z,18.20
2018-03-06T00:25:58.963Z,18.00
2018-03-06T00:28:00.034Z,17.03
2018-03-06T00:32:29.136Z,17.37
2018-03-06T00:34:30.120Z,16.90
2018-03-06T00:36:31.084Z,16.80
2018-03-06T00:41:18.103Z,17.17
2018-03-06T00:46:02.556Z,16.87
2018-03-06T00:48:03.786Z,17.60
2018-03-06T00:50:04.828Z,16.17
2018-03-06T00:52:05.872Z,18.37
2018-03-06T00:54:07.559Z,18.50
2018-03-06T00:58:37.954Z,16.73
2018-03-06T01:00:42.307Z,16.43
2018-03-06T01:02:44.097Z,17.73
2018-03-06T01:04:47.849Z,17.30
2018-03-06T01:06:50.465Z,17.47
2018-03-06T01:09:08.712Z,18.70
2018-03-06T01:11:12.335Z,17.57
2018-03-06T01:13:15.316Z,17.30
2018-03-06T01:15:16.518Z,16.73
2018-03-06T01:17:39.124Z,17.67
2018-03-06T01:19:40.360Z,18.47
2018-03-06T01:22:08.990Z,18.60
2018-03-06T01:26:38.278Z,17.77
2018-03-06T01:28:39.352Z,16.80
2018-03-06T01:30:40.339Z,17.80
2018-03-06T01:35:12.330Z,16.70
2018-03-06T01:37:13.399Z,18.00
2018-03-06T01:39:14.436Z,18.20
2018-03-06T01:41:15.432Z,17.27
2018-03-06T01:43:20.143Z,17.00
2018-03-06T01:48:05.166Z,17.30
2018-03-06T01:50:11.955Z,17.63
2018-03-06T01:52:13.127Z,17.63
2018-03-06T01:56:41.688Z,17.63
2018-03-06T01:58:45.109Z,16.40
2018-03-06T02:00:47.352Z,17.30
2018-03-06T02:02:48.468Z,17.30
2018-03-06T02:04:54.891Z,18.07
2018-03-06T02:06:56.622Z,17.93
2018-03-06T02:08:57.718Z,17.20
2018-03-06T02:10:59.887Z,17.20
2018-03-06T02:13:01.788Z,16.40
2018-03-06T02:15:02.903Z,18.67
2018-03-06T02:19:32.036Z,17.30
2018-03-06T02:21:33.045Z,18.17
2018-03-06T02:23:34.097Z,20.67
2018-03-06T03:07:13.801Z,19.03
2018-03-06T03:09:37.369Z,21.20
2018-03-06T03:11:38.409Z,19.40
2018-03-06T03:16:09.995Z,22.00
2018-03-06T03:18:11.362Z,22.47
2018-03-06T03:20:12.376Z,22.37
2018-03-06T03:22:13.377Z,21.87
2018-03-06T03:24:17.206Z,22.27
2018-03-06T03:26:38.152Z,21.87
2018-03-06T03:31:19.912Z,24.10
2018-03-06T03:33:21.420Z,23.53
2018-03-06T03:35:22.874Z,24.53
2018-03-06T03:37:24.541Z,23.60
2018-03-06T03:41:49.263Z,24.97
2018-03-06T03:43:50.515Z,25.60
2018-03-06T03:45:51.715Z,27.57
2018-03-06T03:47:53.096Z,26.23
2018-03-06T03:49:59.195Z,26.33
2018-03-06T03:52:11.940Z,27.10
2018-03-06T03:54:21.637Z,26.50
2018-03-06T03:56:22.898Z,27.10
2018-03-06T03:58:24.059Z,28.13
2018-03-06T04:00:36.088Z,28.13
2018-03-06T04:02:39.799Z,26.43
2018-03-06T04:04:41.208Z,28.90
2018-03-06T04:08:58.841Z,26.17
2018-03-06T04:11:08.165Z,30.23
2018-03-06T04:13:09.504Z,29.90
2018-03-06T04:17:27.753Z,29.77
2018-03-06T04:19:33.096Z,32.50
2018-03-06T04:21:34.370Z,31.33
2018-03-06T04:23:35.585Z,32.20
2018-03-06T04:25:39.305Z,32.17
2018-03-06T04:27:40.697Z,31.17
2018-03-06T04:29:41.888Z,31.73
2018-03-06T04:34:01.018Z,31.40
2018-03-06T04:36:02.261Z,31.80
2018-03-06T04:38:03.318Z,30.70
2018-03-06T04:40:04.482Z,31.50
2018-03-06T04:42:05.633Z,32.67
2018-03-06T04:49:02.694Z,30.80
2018-03-06T04:51:37.886Z,32.40
2018-03-06T04:56:16.658Z,32.03
2018-03-06T04:58:39.576Z,30.50
2018-03-06T05:00:40.887Z,33.00
2018-03-06T05:02:42.135Z,32.45
2018-03-06T05:05:06.280Z,34.73
2018-03-06T05:07:27.467Z,34.00
2018-03-06T05:09:37.719Z,32.37
2018-03-06T05:11:38.921Z,35.50
2018-03-06T05:13:40.132Z,37.72
2018-03-06T05:15:41.371Z,34.87
2018-03-06T05:17:42.470Z,33.10
2018-03-06T05:19:54.945Z,34.67
2018-03-06T05:22:11.012Z,34.83
2018-03-06T05:24:12.175Z,34.10
2018-03-06T05:26:13.363Z,39.45
2018-03-06T05:28:14.485Z,37.53
2018-03-06T05:30:15.562Z,38.77
2018-03-06T05:32:18.358Z,35.53
2018-03-06T05:34:19.448Z,38.67
2018-03-06T05:36:44.998Z,44.10
2018-03-06T05:41:13.880Z,42.75
2018-03-06T05:43:19.280Z,43.30
2018-03-06T05:45:25.650Z,44.53
2018-03-06T05:47:26.788Z,45.22
2018-03-06T05:49:34.252Z,48.10
2018-03-06T05:51:37.311Z,44.03
2018-03-06T05:53:38.585Z,49.83
2018-03-06T05:55:39.842Z,51.25
2018-03-06T05:58:07.165Z,52.08
2018-03-06T06:00:22.605Z,49.03
2018-03-06T06:02:23.768Z,49.80
2018-03-06T06:04:24.822Z,52.03
2018-03-06T06:06:27.226Z,52.22
2018-03-06T06:08:28.325Z,52.37
2018-03-06T06:10:30.931Z,52.15
2018-03-06T06:12:34.710Z,52.60
2018-03-06T06:14:35.919Z,56.37
2018-03-06T06:16:36.973Z,54.27
2018-03-06T06:18:38.008Z,54.88
2018-03-06T06:20:39.069Z,56.55
2018-03-06T06:22:42.913Z,57.13
2018-03-06T06:24:44.765Z,55.60
2018-03-06T06:26:47.577Z,57.70
2018-03-06T06:28:53.524Z,57.85
2018-03-06T06:30:54.755Z,60.57
2018-03-06T06:32:55.791Z,58.78
2018-03-06T06:34:56.878Z,58.10
2018-03-06T06:36:59.036Z,58.87
2018-03-06T06:39:00.215Z,61.65
2018-03-06T06:41:08.596Z,63.38
2018-03-06T06:43:09.826Z,61.40
2018-03-06T06:47:27.540Z,62.65
2018-03-06T06:49:36.800Z,63.67
2018-03-06T06:51:37.891Z,62.07
2018-03-06T06:53:38.910Z,61.15
2018-03-06T06:55:39.979Z,63.13
2018-03-06T06:57:41.043Z,70.78
2018-03-06T06:59:42.083Z,65.90
2018-03-06T07:01:43.102Z,65.57
2018-03-06T07:03:46.196Z,63.43
2018-03-06T07:05:47.956Z,67.35
2018-03-06T07:13:11.682Z,65.30
2018-03-06T07:15:23.190Z,60.93
2018-03-06T07:22:27.959Z,62.40
2018-03-06T07:32:16.502Z,63.50
2018-03-06T07:34:19.096Z,60.43
2018-03-06T09:28:16.217Z,69.17
2018-03-06T09:30:18.024Z,72.50
2018-03-06T09:32:22.142Z,72.30
2018-03-06T09:36:38.934Z,74.50
2018-03-06T09:38:40.665Z,78.23
2018-03-06T09:40:44.263Z,78.17
2018-03-06T09:42:46.837Z,80.07
2018-03-06T09:44:56.806Z,75.13
2018-03-06T09:46:57.860Z,81.07
2018-03-06T09:48:58.855Z,78.67
2018-03-06T09:50:59.827Z,75.03
2018-03-06T09:53:00.937Z,76.70
2018-03-06T09:55:03.648Z,70.00
2018-03-06T09:59:16.550Z,82.43
2018-03-06T10:01:24.220Z,78.20
2018-03-06T10:03:25.630Z,77.60
2018-03-06T10:05:27.548Z,77.13
2018-03-06T10:07:30.461Z,77.60
2018-03-06T10:09:31.713Z,75.20
2018-03-06T10:11:32.780Z,81.27
2018-03-06T10:13:37.695Z,76.93
2018-03-06T10:15:38.841Z,77.33
2018-03-06T10:17:39.944Z,75.00
2018-03-06T10:19:41.019Z,78.27
2018-03-06T10:21:42.124Z,76.20
2018-03-06T10:23:43.146Z,73.00
2018-03-06T10:25:44.141Z,78.23
2018-03-06T10:30:24.987Z,77.43
2018-03-06T10:32:31.024Z,74.23
2018-03-06T10:34:34.373Z,80.43
2018-03-06T10:36:36.803Z,76.10
2018-03-06T10:38:37.917Z,76.30
2018-03-06T10:42:50.020Z,76.47
2018-03-06T10:44:53.946Z,77.00
2018-03-06T10:46:56.566Z,84.17
2018-03-06T10:49:00.551Z,78.83
2018-03-06T10:51:09.697Z,75.27
2018-03-06T10:53:10.814Z,72.83
2018-03-06T10:55:11.951Z,74.97
2018-03-06T10:57:27.610Z,73.10
2018-03-06T10:59:32.995Z,78.57
2018-03-06T11:04:13.627Z,76.50
2018-03-06T11:06:15.193Z,74.50
2018-03-06T11:08:16.230Z,70.90
2018-03-06T11:10:39.163Z,67.93
2018-03-06T11:12:41.058Z,70.93
2018-03-06T11:14:43.513Z,74.27
2018-03-06T11:19:10.264Z,73.90
2018-03-06T11:25:32.312Z,75.70
2018-03-06T11:27:33.826Z,71.23
2018-03-06T11:29:34.901Z,73.77
2018-03-06T11:31:35.884Z,74.47
2018-03-06T11:33:36.863Z,75.00
2018-03-06T11:35:37.854Z,75.13
2018-03-06T11:37:38.837Z,76.20
2018-03-06T11:39:39.848Z,70.80
2018-03-06T11:41:40.824Z,76.07
2018-03-06T11:43:41.786Z,71.80
2018-03-06T11:48:04.254Z,76.83
2018-03-06T11:50:07.728Z,76.10
2018-03-06T11:52:09.559Z,73.60
2018-03-06T11:54:11.286Z,70.03
2018-03-06T11:56:12.273Z,75.07
2018-03-06T12:00:39.826Z,70.10
2018-03-06T12:05:29.495Z,69.67
2018-03-06T12:07:44.604Z,77.27
2018-03-06T12:09:45.645Z,76.97
2018-03-06T12:11:48.095Z,75.50
2018-03-06T12:13:49.581Z,77.40
2018-03-06T12:15:50.598Z,79.30
2018-03-06T12:17:52.047Z,79.80
2018-03-06T12:19:53.672Z,78.83
2018-03-06T12:21:54.738Z,77.10
2018-03-06T12:29:23.819Z,82.47
2018-03-06T12:36:36.062Z,80.40
2018-03-06T12:38:37.624Z,78.03
2018-03-06T12:40:54.396Z,79.77
2018-03-06T12:42:55.970Z,74.80
2018-03-06T12:44:58.720Z,79.83
2018-03-06T12:46:59.762Z,79.60
2018-03-06T12:49:00.719Z,78.60
2018-03-06T12:51:08.390Z,76.87
2018-03-06T12:55:21.144Z,79.10
2018-03-06T13:00:00.305Z,75.60
2018-03-06T13:02:01.787Z,74.90
2018-03-06T13:04:02.802Z,76.43
2018-03-06T13:06:25.823Z,71.20
2018-03-06T13:08:26.906Z,72.43
2018-03-06T13:10:28.405Z,75.43
2018-03-06T13:15:14.319Z,75.67
2018-03-06T13:17:23.240Z,79.20
2018-03-06T13:19:24.288Z,78.60
2018-03-06T13:21:25.310Z,77.57
2018-03-06T13:23:26.356Z,78.90
2018-03-06T13:30:33.691Z,75.77
2018-03-06T13:37:39.737Z,76.73
2018-03-06T13:44:50.596Z,73.40
2018-03-06T13:46:54.436Z,73.47
2018-03-06T13:51:44.664Z,74.73
2018-03-06T13:56:13.065Z,62.90
2018-03-06T13:58:14.164Z,66.70
2018-03-06T14:00:15.138Z,77.50
2018-03-06T14:02:16.142Z,68.83
2018-03-06T14:06:34.565Z,77.10
2018-03-06T14:08:35.536Z,76.90
2018-03-06T14:10:37.393Z,78.00
2018-03-06T14:12:38.393Z,70.37
2018-03-06T14:14:39.359Z,74.70
2018-03-06T14:16:58.055Z,73.73
2018-03-06T14:24:03.761Z,75.00
2018-03-06T14:26:04.713Z,75.07
2018-03-06T14:28:25.738Z,75.93
2018-03-06T14:30:54.135Z,62.03
2018-03-06T14:35:25.111Z,76.30
2018-03-06T14:37:28.629Z,75.57
2018-03-06T14:39:29.690Z,85.40
2018-03-06T14:41:55.054Z,76.30
2018-03-06T14:46:34.136Z,73.80
2018-03-06T14:48:37.205Z,77.93
2018-03-06T14:50:56.798Z,78.97
2018-03-06T14:53:03.953Z,67.20
2018-03-06T14:55:07.712Z,74.40
2018-03-06T14:57:08.797Z,73.70
2018-03-06T15:01:49.439Z,69.97
2018-03-06T15:03:50.496Z,68.00
2018-03-06T15:08:36.697Z,78.43
2018-03-06T15:10:38.620Z,76.03
2018-03-06T15:12:39.733Z,72.67
2018-03-06T15:14:45.629Z,76.37
2018-03-06T15:16:46.649Z,75.20
2018-03-06T15:18:47.622Z,76.10
2018-03-06T15:20:49.220Z,77.90
2018-03-06T15:23:04.032Z,74.97
2018-03-06T15:25:05.844Z,74.63
2018-03-06T15:29:50.274Z,79.47
2018-03-06T15:31:52.008Z,77.10
2018-03-06T15:33:53.534Z,77.43
2018-03-06T15:35:54.524Z,79.13
2018-03-06T15:37:56.692Z,81.83
2018-03-06T15:40:05.272Z,79.00
2018-03-06T15:42:06.274Z,80.97
2018-03-06T15:44:07.920Z,80.67
2018-03-06T15:46:08.918Z,81.80
2018-03-06T15:51:00.092Z,78.03
2018-03-06T15:53:03.790Z,83.37
2018-03-06T15:55:19.773Z,76.87
2018-03-06T15:57:20.909Z,80.83
2018-03-06T15:59:21.901Z,80.37
2018-03-06T16:01:23.840Z,85.30
2018-03-06T16:03:25.807Z,84.40
2018-03-06T16:05:36.654Z,79.30
2018-03-06T16:07:45.717Z,82.87
2018-03-06T16:09:47.108Z,83.47
2018-03-06T16:11:59.495Z,78.67
2018-03-06T16:14:00.645Z,84.27
2018-03-06T16:16:01.620Z,80.73
2018-03-06T16:20:15.316Z,80.30
2018-03-06T16:24:58.686Z,85.57
2018-03-06T16:27:00.762Z,77.80
2018-03-06T16:29:03.908Z,86.30
2018-03-06T16:31:05.010Z,85.27
2018-03-06T16:33:06.019Z,85.90
2018-03-06T16:35:06.977Z,83.93
2018-03-06T16:37:07.948Z,83.53
2018-03-06T16:41:46.517Z,81.23
2018-03-06T16:43:47.467Z,79.43
2018-03-06T16:48:30.043Z,75.97
2018-03-06T16:50:35.036Z,80.23
2018-03-06T16:52:35.988Z,83.33
2018-03-06T16:54:47.406Z,86.10
2018-03-06T16:56:49.119Z,84.40
2018-03-06T16:58:51.988Z,85.77
2018-03-06T17:00:57.357Z,82.90
2018-03-06T17:02:58.534Z,89.17
2018-03-06T17:04:59.487Z,93.60
2018-03-06T17:07:00.439Z,88.47
2018-03-06T17:09:01.414Z,80.80
2018-03-06T17:11:03.779Z,80.73
2018-03-06T17:13:12.473Z,76.93
2018-03-06T17:15:13.781Z,85.10
2018-03-06T17:17:14.767Z,81.30
2018-03-06T17:21:34.195Z,79.33
2018-03-06T17:23:35.202Z,83.07
2018-03-06T17:25:41.622Z,83.43
2018-03-06T17:27:47.099Z,80.90
2018-03-06T17:29:48.575Z,88.77
2018-03-06T17:31:49.596Z,84.40
2018-03-06T17:33:50.583Z,85.47
2018-03-06T17:36:00.961Z,86.07
2018-03-06T17:40:12.479Z,83.93
2018-03-06T17:42:13.731Z,85.10
2018-03-06T17:44:14.709Z,79.83
2018-03-06T17:46:20.190Z,81.60
2018-03-06T17:51:00.375Z,75.40
2018-03-06T17:53:01.476Z,79.77
2018-03-06T17:55:09.851Z,82.10
2018-03-06T17:57:15.567Z,80.00
2018-03-06T17:59:17.193Z,83.60
2018-03-06T18:01:18.139Z,82.37
2018-03-06T18:05:37.044Z,81.80
2018-03-06T18:07:41.899Z,80.73
2018-03-06T18:09:49.327Z,81.73
2018-03-06T18:11:50.616Z,76.80
2018-03-06T18:13:51.604Z,76.77
2018-03-06T18:18:10.032Z,76.13
2018-03-06T18:20:11.020Z,82.53
2018-03-06T18:22:12.710Z,81.40
2018-03-06T18:24:13.697Z,74.83
2018-03-06T18:26:14.744Z,70.87
2018-03-06T18:28:15.755Z,73.47
2018-03-06T18:30:29.585Z,75.23
2018-03-06T18:32:47.344Z,72.00
2018-03-06T18:34:48.517Z,74.37
2018-03-06T18:36:57.724Z,71.87
2018-03-06T18:38:59.688Z,72.30
2018-03-06T18:43:35.804Z,69.60
2018-03-06T18:45:39.887Z,72.57
2018-03-06T18:47:41.136Z,62.67
2018-03-06T18:49:54.412Z,71.00
2018-03-06T18:51:55.525Z,68.63
2018-03-06T18:54:03.521Z,62.63
2018-03-06T18:56:04.636Z,61.00
2018-03-06T18:58:05.614Z,65.10
2018-03-06T19:05:44.635Z,69.40
2018-03-06T19:07:45.655Z,68.37
2018-03-06T19:09:46.648Z,65.73
2018-03-06T19:17:05.818Z,64.43
2018-03-06T19:19:15.227Z,64.40
2018-03-06T19:21:27.590Z,69.77
2018-03-06T19:23:44.057Z,61.30
2018-03-06T19:26:25.667Z,64.20
2018-03-06T19:28:26.722Z,62.10
2018-03-06T19:33:05.564Z,63.57
2018-03-06T19:37:38.017Z,66.10
2018-03-06T19:39:38.993Z,66.53
2018-03-06T19:41:55.236Z,69.20
2018-03-06T19:44:04.558Z,65.63
2018-03-06T19:46:05.850Z,69.87
2018-03-06T19:48:06.968Z,68.13
2018-03-06T19:50:07.935Z,68.27
2018-03-06T19:52:12.065Z,67.23
2018-03-06T19:54:13.042Z,65.27
2018-03-06T19:56:35.615Z,67.40
2018-03-06T20:01:23.483Z,64.23
2018-03-06T20:03:24.485Z,65.60
2018-03-06T20:05:25.542Z,64.73
2018-03-06T20:07:28.680Z,66.17
2018-03-06T20:14:51.072Z,63.97
2018-03-06T20:16:52.051Z,63.23
2018-03-06T20:19:00.236Z,67.10
2018-03-06T20:21:14.376Z,66.27
2018-03-06T20:23:15.363Z,64.50
2018-03-06T20:25:22.380Z,64.70
2018-03-06T20:29:50.252Z,65.27
2018-03-06T20:34:19.010Z,67.67
2018-03-06T20:36:29.253Z,67.10
2018-03-06T20:41:00.187Z,63.93
2018-03-06T20:45:38.174Z,67.57
2018-03-06T20:47:58.310Z,68.97
2018-03-06T20:55:04.513Z,69.33
2018-03-06T20:57:06.292Z,69.83
2018-03-06T21:02:11.426Z,68.00
2018-03-06T21:06:58.535Z,65.80
2018-03-06T21:13:56.806Z,69.10
2018-03-06T21:15:59.913Z,71.33
2018-03-06T21:18:08.252Z,65.00
2018-03-06T21:20:37.600Z,72.97
2018-03-06T21:22:39.215Z,71.23
2018-03-06T21:27:10.158Z,66.70
2018-03-06T21:32:29.907Z,65.83
2018-03-06T21:34:38.416Z,74.20
2018-03-06T21:36:39.477Z,69.50
2018-03-06T21:38:40.511Z,70.03
2018-03-06T21:40:41.634Z,70.80
2018-03-06T21:46:07.884Z,73.53
2018-03-06T21:50:37.097Z,69.67
2018-03-06T21:55:08.885Z,72.70
2018-03-06T21:58:09.822Z,70.30
2018-03-06T22:00:37.383Z,70.67
2018-03-06T22:05:06.296Z,69.97
2018-03-06T22:07:07.987Z,71.60
2018-03-06T22:09:09.057Z,72.87
2018-03-06T22:13:38.901Z,71.20
2018-03-06T22:18:07.725Z,71.60
2018-03-06T22:25:04.809Z,69.13
2018-03-06T22:29:53.772Z,73.00
2018-03-06T22:31:54.768Z,69.97
2018-03-06T22:41:37.615Z,71.17
2018-03-06T22:43:38.626Z,65.77
2018-03-06T22:45:40.579Z,74.30
2018-03-06T22:47:50.628Z,71.80
2018-03-06T22:49:51.861Z,73.00
2018-03-06T22:52:08.360Z,74.10
2018-03-06T22:54:32.189Z,72.03
2018-03-06T22:56:33.214Z,68.23
2018-03-06T22:58:34.226Z,70.13
2018-03-06T23:00:35.206Z,73.50
2018-03-06T23:04:57.705Z,68.97
2018-03-06T23:07:01.345Z,73.37
2018-03-06T23:09:07.978Z,74.50
2018-03-06T23:11:09.105Z,70.93
2018-03-06T23:13:10.062Z,72.00
2018-03-06T23:17:27.256Z,67.20
2018-03-06T23:22:07.021Z,73.07
2018-03-06T23:24:08.025Z,66.87
2018-03-06T23:26:41.296Z,70.57
2018-03-06T23:28:42.308Z,67.77
2018-03-06T23:36:06.019Z,64.00
2018-03-06T23:38:26.776Z,69.37
2018-03-06T23:40:28.104Z,74.37
2018-03-06T23:45:07.069Z,68.27
2018-03-06T23:47:08.096Z,75.27
2018-03-06T23:49:09.202Z,71.30
2018-03-06T23:51:10.191Z,72.37
2018-03-06T23:53:12.242Z,73.93
2018-03-06T23:55:13.284Z,74.60
2018-03-06T23:59:43.520Z,70.20
